sensor_id;sensor_type;location;lat;lon;timestamp;pressure;altitude;pressure_sealevel;temperature
68027;BMP180;54819;48.030;14.710;2022-10-31T00:01:27;98035.80;;;11.80
68027;BMP180;54819;48.030;14.710;2022-10-31T00:03:54;98036.60;;;11.80
68027;BMP180;54819;48.030;14.710;2022-10-31T00:06:22;98033.80;;;11.80
68027;BMP180;54819;48.030;14.710;2022-10-31T00:09:02;98036.00;;;11.80
68027;BMP180;54819;48.030;14.710;2022-10-31T00:11:30;98036.20;;;11.80
68027;BMP180;54819;48.030;14.710;2022-10-31T00:13:58;98037.20;;;11.80
68027;BMP180;54819;48.030;14.710;2022-10-31T00:16:27;98038.20;;;11.80
68027;BMP180;54819;48.030;14.710;2022-10-31T00:18:58;98039.60;;;11.80
68027;BMP180;54819;48.030;14.710;2022-10-31T00:21:26;98037.60;;;11.80
68027;BMP180;54819;48.030;14.710;2022-10-31T00:23:54;98041.60;;;11.80
68027;BMP180;54819;48.030;14.710;2022-10-31T00:26:20;98041.20;;;11.80
68027;BMP180;54819;48.030;14.710;2022-10-31T00:28:48;98046.20;;;11.80
68027;BMP180;54819;48.030;14.710;2022-10-31T00:31:15;98045.60;;;11.70
68027;BMP180;54819;48.030;14.710;2022-10-31T00:33:43;98051.00;;;11.70
68027;BMP180;54819;48.030;14.710;2022-10-31T00:36:17;98050.80;;;11.70
68027;BMP180;54819;48.030;14.710;2022-10-31T00:38:46;98053.80;;;11.60
68027;BMP180;54819;48.030;14.710;2022-10-31T00:41:16;98057.40;;;11.60
68027;BMP180;54819;48.030;14.710;2022-10-31T00:43:44;98053.80;;;11.60
68027;BMP180;54819;48.030;14.710;2022-10-31T00:46:12;98043.60;;;11.60
68027;BMP180;54819;48.030;14.710;2022-10-31T00:48:40;98050.20;;;11.60
68027;BMP180;54819;48.030;14.710;2022-10-31T00:51:08;98052.20;;;11.60
68027;BMP180;54819;48.030;14.710;2022-10-31T00:53:35;98048.80;;;11.60
68027;BMP180;54819;48.030;14.710;2022-10-31T00:56:03;98051.00;;;11.60
68027;BMP180;54819;48.030;14.710;2022-10-31T00:58:30;98055.00;;;11.60
68027;BMP180;54819;48.030;14.710;2022-10-31T01:00:57;98054.00;;;11.54
68027;BMP180;54819;48.030;14.710;2022-10-31T01:03:29;98048.00;;;11.52
68027;BMP180;54819;48.030;14.710;2022-10-31T01:06:03;98053.00;;;11.58
68027;BMP180;54819;48.030;14.710;2022-10-31T01:08:32;98052.80;;;11.60
68027;BMP180;54819;48.030;14.710;2022-10-31T01:13:32;98053.80;;;11.60
68027;BMP180;54819;48.030;14.710;2022-10-31T01:16:03;98052.60;;;11.58
68027;BMP180;54819;48.030;14.710;2022-10-31T01:18:32;98053.60;;;11.56
68027;BMP180;54819;48.030;14.710;2022-10-31T01:21:08;98049.00;;;11.50
68027;BMP180;54819;48.030;14.710;2022-10-31T01:23:35;98050.40;;;11.50
68027;BMP180;54819;48.030;14.710;2022-10-31T01:28:57;98050.80;;;11.50
68027;BMP180;54819;48.030;14.710;2022-10-31T01:31:30;98051.20;;;11.50
68027;BMP180;54819;48.030;14.710;2022-10-31T01:33:58;98052.80;;;11.50
68027;BMP180;54819;48.030;14.710;2022-10-31T01:36:29;98057.60;;;11.52
68027;BMP180;54819;48.030;14.710;2022-10-31T01:39:03;98059.40;;;11.54
68027;BMP180;54819;48.030;14.710;2022-10-31T01:41:36;98057.80;;;11.50
68027;BMP180;54819;48.030;14.710;2022-10-31T01:47:12;98058.20;;;11.50
68027;BMP180;54819;48.030;14.710;2022-10-31T01:49:51;98061.60;;;11.50
68027;BMP180;54819;48.030;14.710;2022-10-31T01:52:31;98059.60;;;11.50
68027;BMP180;54819;48.030;14.710;2022-10-31T01:55:09;98058.00;;;11.50
68027;BMP180;54819;48.030;14.710;2022-10-31T01:57:42;98058.80;;;11.40
68027;BMP180;54819;48.030;14.710;2022-10-31T02:00:13;98057.80;;;11.40
68027;BMP180;54819;48.030;14.710;2022-10-31T02:02:40;98061.00;;;11.40
68027;BMP180;54819;48.030;14.710;2022-10-31T02:05:15;98061.80;;;11.30
68027;BMP180;54819;48.030;14.710;2022-10-31T02:10:33;98055.00;;;11.30
68027;BMP180;54819;48.030;14.710;2022-10-31T02:13:04;98053.80;;;11.30
68027;BMP180;54819;48.030;14.710;2022-10-31T02:15:37;98051.00;;;11.30
68027;BMP180;54819;48.030;14.710;2022-10-31T02:18:06;98046.60;;;11.34
68027;BMP180;54819;48.030;14.710;2022-10-31T02:21:16;98046.00;;;11.32
68027;BMP180;54819;48.030;14.710;2022-10-31T02:27:13;98047.20;;;11.40
68027;BMP180;54819;48.030;14.710;2022-10-31T02:30:03;98045.80;;;11.40
68027;BMP180;54819;48.030;14.710;2022-10-31T02:41:56;98043.80;;;11.40
68027;BMP180;54819;48.030;14.710;2022-10-31T02:47:08;98048.40;;;11.40
68027;BMP180;54819;48.030;14.710;2022-10-31T02:52:29;98051.80;;;11.40
68027;BMP180;54819;48.030;14.710;2022-10-31T02:57:56;98048.20;;;11.30
68027;BMP180;54819;48.030;14.710;2022-10-31T03:00:27;98049.60;;;11.20
68027;BMP180;54819;48.030;14.710;2022-10-31T03:03:14;98051.20;;;11.20
68027;BMP180;54819;48.030;14.710;2022-10-31T03:11:08;98055.20;;;11.20
68027;BMP180;54819;48.030;14.710;2022-10-31T03:21:49;98058.40;;;11.10
68027;BMP180;54819;48.030;14.710;2022-10-31T03:24:26;98055.00;;;11.00
68027;BMP180;54819;48.030;14.710;2022-10-31T03:26:57;98060.80;;;11.00
68027;BMP180;54819;48.030;14.710;2022-10-31T03:29:30;98057.40;;;11.00
68027;BMP180;54819;48.030;14.710;2022-10-31T03:32:07;98057.40;;;11.00
68027;BMP180;54819;48.030;14.710;2022-10-31T03:34:37;98056.20;;;11.00
68027;BMP180;54819;48.030;14.710;2022-10-31T03:37:09;98055.20;;;11.00
68027;BMP180;54819;48.030;14.710;2022-10-31T03:39:41;98053.80;;;10.96
68027;BMP180;54819;48.030;14.710;2022-10-31T03:42:20;98058.20;;;10.90
68027;BMP180;54819;48.030;14.710;2022-10-31T03:45:01;98060.00;;;10.90
68027;BMP180;54819;48.030;14.710;2022-10-31T03:47:29;98063.20;;;10.90
68027;BMP180;54819;48.030;14.710;2022-10-31T03:49:58;98056.00;;;10.90
68027;BMP180;54819;48.030;14.710;2022-10-31T03:52:35;98058.60;;;10.90
68027;BMP180;54819;48.030;14.710;2022-10-31T03:58:34;98056.40;;;10.90
68027;BMP180;54819;48.030;14.710;2022-10-31T04:01:07;98060.20;;;10.90
68027;BMP180;54819;48.030;14.710;2022-10-31T04:03:38;98060.60;;;10.90
68027;BMP180;54819;48.030;14.710;2022-10-31T04:06:09;98058.80;;;10.90
68027;BMP180;54819;48.030;14.710;2022-10-31T04:08:49;98059.00;;;10.90
68027;BMP180;54819;48.030;14.710;2022-10-31T04:11:24;98063.80;;;10.90
68027;BMP180;54819;48.030;14.710;2022-10-31T04:14:11;98066.40;;;10.94
68027;BMP180;54819;48.030;14.710;2022-10-31T04:16:42;98063.80;;;10.90
68027;BMP180;54819;48.030;14.710;2022-10-31T04:19:11;98066.00;;;10.90
68027;BMP180;54819;48.030;14.710;2022-10-31T04:21:39;98062.80;;;10.90
68027;BMP180;54819;48.030;14.710;2022-10-31T04:24:06;98063.40;;;10.90
68027;BMP180;54819;48.030;14.710;2022-10-31T04:26:33;98064.80;;;10.90
68027;BMP180;54819;48.030;14.710;2022-10-31T04:29:00;98063.60;;;10.90
68027;BMP180;54819;48.030;14.710;2022-10-31T04:31:27;98063.00;;;10.90
68027;BMP180;54819;48.030;14.710;2022-10-31T04:33:54;98061.00;;;10.90
68027;BMP180;54819;48.030;14.710;2022-10-31T04:36:22;98058.80;;;10.80
68027;BMP180;54819;48.030;14.710;2022-10-31T04:38:49;98062.20;;;10.80
68027;BMP180;54819;48.030;14.710;2022-10-31T04:41:30;98061.20;;;10.80
68027;BMP180;54819;48.030;14.710;2022-10-31T04:44:00;98060.80;;;10.80
68027;BMP180;54819;48.030;14.710;2022-10-31T04:46:27;98059.60;;;10.80
68027;BMP180;54819;48.030;14.710;2022-10-31T04:48:55;98063.80;;;10.80
68027;BMP180;54819;48.030;14.710;2022-10-31T04:51:23;98064.00;;;10.80
68027;BMP180;54819;48.030;14.710;2022-10-31T04:53:50;98067.80;;;10.80
68027;BMP180;54819;48.030;14.710;2022-10-31T04:56:22;98067.80;;;10.80
68027;BMP180;54819;48.030;14.710;2022-10-31T04:58:55;98069.00;;;10.80
68027;BMP180;54819;48.030;14.710;2022-10-31T05:01:23;98063.00;;;10.80
68027;BMP180;54819;48.030;14.710;2022-10-31T05:03:50;98064.00;;;10.80
68027;BMP180;54819;48.030;14.710;2022-10-31T05:06:17;98064.60;;;10.80
68027;BMP180;54819;48.030;14.710;2022-10-31T05:08:45;98065.20;;;10.80
68027;BMP180;54819;48.030;14.710;2022-10-31T05:11:11;98066.60;;;10.76
68027;BMP180;54819;48.030;14.710;2022-10-31T05:13:38;98065.20;;;10.70
68027;BMP180;54819;48.030;14.710;2022-10-31T05:16:28;98067.20;;;10.70
68027;BMP180;54819;48.030;14.710;2022-10-31T05:19:15;98074.00;;;10.68
68027;BMP180;54819;48.030;14.710;2022-10-31T05:22:12;98073.00;;;10.60
68027;BMP180;54819;48.030;14.710;2022-10-31T05:24:38;98071.40;;;10.60
68027;BMP180;54819;48.030;14.710;2022-10-31T05:27:08;98076.00;;;10.60
68027;BMP180;54819;48.030;14.710;2022-10-31T05:29:36;98072.40;;;10.60
68027;BMP180;54819;48.030;14.710;2022-10-31T05:32:02;98074.20;;;10.60
68027;BMP180;54819;48.030;14.710;2022-10-31T05:35:15;98075.20;;;10.60
68027;BMP180;54819;48.030;14.710;2022-10-31T05:38:02;98078.60;;;10.60
68027;BMP180;54819;48.030;14.710;2022-10-31T05:40:30;98076.00;;;10.60
68027;BMP180;54819;48.030;14.710;2022-10-31T05:42:57;98077.20;;;10.60
68027;BMP180;54819;48.030;14.710;2022-10-31T05:45:25;98076.20;;;10.60
68027;BMP180;54819;48.030;14.710;2022-10-31T05:48:00;98077.00;;;10.60
68027;BMP180;54819;48.030;14.710;2022-10-31T05:51:00;98075.60;;;10.60
68027;BMP180;54819;48.030;14.710;2022-10-31T05:53:28;98077.20;;;10.60
68027;BMP180;54819;48.030;14.710;2022-10-31T05:55:55;98079.60;;;10.60
68027;BMP180;54819;48.030;14.710;2022-10-31T05:58:22;98084.20;;;10.68
68027;BMP180;54819;48.030;14.710;2022-10-31T06:00:58;98084.80;;;10.66
68027;BMP180;54819;48.030;14.710;2022-10-31T06:03:25;98079.20;;;10.62
68027;BMP180;54819;48.030;14.710;2022-10-31T06:05:55;98085.20;;;10.60
68027;BMP180;54819;48.030;14.710;2022-10-31T06:08:30;98088.00;;;10.60
68027;BMP180;54819;48.030;14.710;2022-10-31T06:10:59;98091.40;;;10.60
68027;BMP180;54819;48.030;14.710;2022-10-31T06:13:46;98092.20;;;10.60
68027;BMP180;54819;48.030;14.710;2022-10-31T06:16:21;98095.00;;;10.60
68027;BMP180;54819;48.030;14.710;2022-10-31T06:18:49;98092.80;;;10.60
68027;BMP180;54819;48.030;14.710;2022-10-31T06:21:17;98094.40;;;10.60
68027;BMP180;54819;48.030;14.710;2022-10-31T06:23:46;98100.00;;;10.60
68027;BMP180;54819;48.030;14.710;2022-10-31T06:26:24;98097.80;;;10.60
68027;BMP180;54819;48.030;14.710;2022-10-31T06:28:51;98098.60;;;10.64
68027;BMP180;54819;48.030;14.710;2022-10-31T06:31:37;98098.60;;;10.70
68027;BMP180;54819;48.030;14.710;2022-10-31T06:34:03;98096.40;;;10.70
68027;BMP180;54819;48.030;14.710;2022-10-31T06:36:31;98096.40;;;10.70
68027;BMP180;54819;48.030;14.710;2022-10-31T06:38:58;98095.40;;;10.72
68027;BMP180;54819;48.030;14.710;2022-10-31T06:41:25;98099.00;;;10.80
68027;BMP180;54819;48.030;14.710;2022-10-31T06:43:53;98095.80;;;10.80
68027;BMP180;54819;48.030;14.710;2022-10-31T06:46:32;98100.00;;;10.90
68027;BMP180;54819;48.030;14.710;2022-10-31T06:49:08;98100.40;;;10.90
68027;BMP180;54819;48.030;14.710;2022-10-31T06:51:41;98098.00;;;11.00
68027;BMP180;54819;48.030;14.710;2022-10-31T06:54:09;98107.80;;;11.00
68027;BMP180;54819;48.030;14.710;2022-10-31T06:56:36;98105.60;;;11.00
68027;BMP180;54819;48.030;14.710;2022-10-31T06:59:03;98110.80;;;11.10
68027;BMP180;54819;48.030;14.710;2022-10-31T07:01:53;98109.20;;;11.10
68027;BMP180;54819;48.030;14.710;2022-10-31T07:04:21;98113.20;;;11.10
68027;BMP180;54819;48.030;14.710;2022-10-31T07:06:51;98113.00;;;11.20
68027;BMP180;54819;48.030;14.710;2022-10-31T07:09:19;98110.60;;;11.20
68027;BMP180;54819;48.030;14.710;2022-10-31T07:11:46;98117.00;;;11.22
68027;BMP180;54819;48.030;14.710;2022-10-31T07:14:13;98118.00;;;11.30
68027;BMP180;54819;48.030;14.710;2022-10-31T07:16:41;98120.80;;;11.30
68027;BMP180;54819;48.030;14.710;2022-10-31T07:19:08;98120.00;;;11.38
68027;BMP180;54819;48.030;14.710;2022-10-31T07:21:36;98118.80;;;11.40
68027;BMP180;54819;48.030;14.710;2022-10-31T07:24:04;98122.00;;;11.44
68027;BMP180;54819;48.030;14.710;2022-10-31T07:26:43;98119.40;;;11.48
68027;BMP180;54819;48.030;14.710;2022-10-31T07:29:12;98121.60;;;11.50
68027;BMP180;54819;48.030;14.710;2022-10-31T07:31:39;98125.40;;;11.50
68027;BMP180;54819;48.030;14.710;2022-10-31T07:34:13;98125.80;;;11.56
68027;BMP180;54819;48.030;14.710;2022-10-31T07:36:59;98128.40;;;11.62
68027;BMP180;54819;48.030;14.710;2022-10-31T07:39:25;98130.80;;;11.68
68027;BMP180;54819;48.030;14.710;2022-10-31T07:41:52;98134.60;;;11.70
68027;BMP180;54819;48.030;14.710;2022-10-31T07:44:19;98130.20;;;11.74
68027;BMP180;54819;48.030;14.710;2022-10-31T07:47:09;98130.60;;;11.88
68027;BMP180;54819;48.030;14.710;2022-10-31T07:50:12;98132.40;;;12.02
68027;BMP180;54819;48.030;14.710;2022-10-31T07:53:06;98126.20;;;12.12
68027;BMP180;54819;48.030;14.710;2022-10-31T07:55:45;98126.40;;;12.20
68027;BMP180;54819;48.030;14.710;2022-10-31T07:58:15;98122.00;;;12.20
68027;BMP180;54819;48.030;14.710;2022-10-31T08:00:46;98123.60;;;12.28
68027;BMP180;54819;48.030;14.710;2022-10-31T08:03:18;98116.80;;;12.30
68027;BMP180;54819;48.030;14.710;2022-10-31T08:05:56;98113.00;;;12.42
68027;BMP180;54819;48.030;14.710;2022-10-31T08:08:41;98111.80;;;12.50
68027;BMP180;54819;48.030;14.710;2022-10-31T08:11:08;98112.80;;;12.60
68027;BMP180;54819;48.030;14.710;2022-10-31T08:13:36;98109.00;;;12.70
68027;BMP180;54819;48.030;14.710;2022-10-31T08:16:04;98109.60;;;12.70
68027;BMP180;54819;48.030;14.710;2022-10-31T08:18:36;98107.80;;;12.78
68027;BMP180;54819;48.030;14.710;2022-10-31T08:21:05;98104.00;;;12.82
68027;BMP180;54819;48.030;14.710;2022-10-31T08:23:32;98100.40;;;12.88
68027;BMP180;54819;48.030;14.710;2022-10-31T08:25:59;98097.40;;;12.90
68027;BMP180;54819;48.030;14.710;2022-10-31T08:28:25;98092.20;;;13.00
68027;BMP180;54819;48.030;14.710;2022-10-31T08:30:53;98095.00;;;13.08
68027;BMP180;54819;48.030;14.710;2022-10-31T08:33:38;98094.20;;;13.20
68027;BMP180;54819;48.030;14.710;2022-10-31T08:36:24;98094.80;;;13.30
68027;BMP180;54819;48.030;14.710;2022-10-31T08:38:56;98095.20;;;13.30
68027;BMP180;54819;48.030;14.710;2022-10-31T08:41:28;98091.20;;;13.32
68027;BMP180;54819;48.030;14.710;2022-10-31T08:43:56;98097.40;;;13.38
68027;BMP180;54819;48.030;14.710;2022-10-31T08:46:23;98091.20;;;13.40
68027;BMP180;54819;48.030;14.710;2022-10-31T08:48:50;98091.80;;;13.50
68027;BMP180;54819;48.030;14.710;2022-10-31T08:51:18;98086.80;;;13.50
68027;BMP180;54819;48.030;14.710;2022-10-31T08:53:47;98090.40;;;13.60
68027;BMP180;54819;48.030;14.710;2022-10-31T08:56:34;98083.00;;;13.70
68027;BMP180;54819;48.030;14.710;2022-10-31T08:59:03;98077.20;;;13.74
68027;BMP180;54819;48.030;14.710;2022-10-31T09:01:41;98072.20;;;13.80
68027;BMP180;54819;48.030;14.710;2022-10-31T09:04:08;98067.20;;;13.90
68027;BMP180;54819;48.030;14.710;2022-10-31T09:06:35;98060.00;;;13.94
68027;BMP180;54819;48.030;14.710;2022-10-31T09:09:03;98062.00;;;14.06
68027;BMP180;54819;48.030;14.710;2022-10-31T09:11:31;98064.00;;;14.10
68027;BMP180;54819;48.030;14.710;2022-10-31T09:14:10;98063.60;;;14.16
68027;BMP180;54819;48.030;14.710;2022-10-31T09:16:37;98064.80;;;14.14
68027;BMP180;54819;48.030;14.710;2022-10-31T09:19:05;98062.80;;;14.20
68027;BMP180;54819;48.030;14.710;2022-10-31T09:21:37;98064.60;;;14.26
68027;BMP180;54819;48.030;14.710;2022-10-31T09:24:05;98063.00;;;14.40
68027;BMP180;54819;48.030;14.710;2022-10-31T09:26:33;98060.20;;;14.50
68027;BMP180;54819;48.030;14.710;2022-10-31T09:29:09;98061.60;;;14.62
68027;BMP180;54819;48.030;14.710;2022-10-31T09:31:36;98057.20;;;14.66
68027;BMP180;54819;48.030;14.710;2022-10-31T09:34:24;98053.00;;;14.68
68027;BMP180;54819;48.030;14.710;2022-10-31T09:37:04;98054.40;;;14.70
68027;BMP180;54819;48.030;14.710;2022-10-31T09:39:33;98057.20;;;14.66
68027;BMP180;54819;48.030;14.710;2022-10-31T09:42:43;98057.60;;;14.70
68027;BMP180;54819;48.030;14.710;2022-10-31T09:45:55;98055.20;;;14.80
68027;BMP180;54819;48.030;14.710;2022-10-31T09:48:40;98057.00;;;15.10
68027;BMP180;54819;48.030;14.710;2022-10-31T09:51:32;98050.60;;;15.24
68027;BMP180;54819;48.030;14.710;2022-10-31T09:54:34;98046.40;;;15.44
68027;BMP180;54819;48.030;14.710;2022-10-31T09:57:05;98045.40;;;15.54
68027;BMP180;54819;48.030;14.710;2022-10-31T09:59:39;98043.40;;;15.60
68027;BMP180;54819;48.030;14.710;2022-10-31T10:02:46;98039.80;;;15.70
68027;BMP180;54819;48.030;14.710;2022-10-31T10:05:26;98041.80;;;15.78
68027;BMP180;54819;48.030;14.710;2022-10-31T10:08:09;98042.60;;;15.80
68027;BMP180;54819;48.030;14.710;2022-10-31T10:14:26;98035.40;;;15.86
68027;BMP180;54819;48.030;14.710;2022-10-31T10:17:14;98028.60;;;16.00
68027;BMP180;54819;48.030;14.710;2022-10-31T10:20:07;98031.20;;;16.00
68027;BMP180;54819;48.030;14.710;2022-10-31T10:23:18;98027.60;;;15.90
68027;BMP180;54819;48.030;14.710;2022-10-31T10:25:40;98018.80;;;15.90
68027;BMP180;54819;48.030;14.710;2022-10-31T10:31:03;98012.80;;;15.94
68027;BMP180;54819;48.030;14.710;2022-10-31T10:34:11;98006.20;;;15.98
68027;BMP180;54819;48.030;14.710;2022-10-31T10:36:46;98003.80;;;15.90
68027;BMP180;54819;48.030;14.710;2022-10-31T10:39:29;97997.20;;;15.90
68027;BMP180;54819;48.030;14.710;2022-10-31T10:41:59;98003.40;;;15.82
68027;BMP180;54819;48.030;14.710;2022-10-31T10:44:47;98006.00;;;15.90
68027;BMP180;54819;48.030;14.710;2022-10-31T10:48:05;97997.40;;;16.08
68027;BMP180;54819;48.030;14.710;2022-10-31T10:50:44;97995.20;;;16.20
68027;BMP180;54819;48.030;14.710;2022-10-31T10:56:22;97989.00;;;16.40
68027;BMP180;54819;48.030;14.710;2022-10-31T10:58:55;97989.60;;;16.46
68027;BMP180;54819;48.030;14.710;2022-10-31T11:01:23;97986.20;;;16.50
68027;BMP180;54819;48.030;14.710;2022-10-31T11:03:49;97985.80;;;16.52
68027;BMP180;54819;48.030;14.710;2022-10-31T11:06:22;97984.40;;;16.60
68027;BMP180;54819;48.030;14.710;2022-10-31T11:08:53;97985.80;;;16.60
68027;BMP180;54819;48.030;14.710;2022-10-31T11:11:29;97981.20;;;16.66
68027;BMP180;54819;48.030;14.710;2022-10-31T11:14:05;97980.00;;;16.60
68027;BMP180;54819;48.030;14.710;2022-10-31T11:16:44;97974.40;;;16.48
68027;BMP180;54819;48.030;14.710;2022-10-31T11:19:26;97969.60;;;16.30
68027;BMP180;54819;48.030;14.710;2022-10-31T11:21:54;97970.00;;;16.22
68027;BMP180;54819;48.030;14.710;2022-10-31T11:24:39;97968.80;;;16.20
68027;BMP180;54819;48.030;14.710;2022-10-31T11:27:22;97962.20;;;16.12
68027;BMP180;54819;48.030;14.710;2022-10-31T11:29:50;97957.40;;;16.16
68027;BMP180;54819;48.030;14.710;2022-10-31T11:32:27;97955.20;;;16.20
68027;BMP180;54819;48.030;14.710;2022-10-31T11:35:02;97949.00;;;16.20
68027;BMP180;54819;48.030;14.710;2022-10-31T11:37:34;97948.60;;;16.22
68027;BMP180;54819;48.030;14.710;2022-10-31T11:40:06;97942.00;;;16.20
68027;BMP180;54819;48.030;14.710;2022-10-31T11:42:40;97942.20;;;16.30
68027;BMP180;54819;48.030;14.710;2022-10-31T11:45:33;97937.60;;;16.20
68027;BMP180;54819;48.030;14.710;2022-10-31T11:48:02;97935.60;;;16.30
68027;BMP180;54819;48.030;14.710;2022-10-31T11:50:42;97933.80;;;16.30
68027;BMP180;54819;48.030;14.710;2022-10-31T11:53:24;97923.80;;;16.32
68027;BMP180;54819;48.030;14.710;2022-10-31T11:56:21;97922.20;;;16.36
68027;BMP180;54819;48.030;14.710;2022-10-31T11:59:02;97918.20;;;16.40
68027;BMP180;54819;48.030;14.710;2022-10-31T12:01:32;97919.20;;;16.50
68027;BMP180;54819;48.030;14.710;2022-10-31T12:04:13;97915.00;;;16.50
68027;BMP180;54819;48.030;14.710;2022-10-31T12:06:43;97911.60;;;16.60
68027;BMP180;54819;48.030;14.710;2022-10-31T12:09:23;97910.80;;;16.60
68027;BMP180;54819;48.030;14.710;2022-10-31T12:26:19;97884.80;;;16.70
68027;BMP180;54819;48.030;14.710;2022-10-31T12:29:09;97885.20;;;16.70
68027;BMP180;54819;48.030;14.710;2022-10-31T12:34:51;97884.80;;;16.70
68027;BMP180;54819;48.030;14.710;2022-10-31T12:38:16;97876.80;;;16.70
68027;BMP180;54819;48.030;14.710;2022-10-31T12:47:26;97868.40;;;16.60
68027;BMP180;54819;48.030;14.710;2022-10-31T12:50:34;97869.40;;;16.42
68027;BMP180;54819;48.030;14.710;2022-10-31T13:01:51;97853.80;;;16.08
68027;BMP180;54819;48.030;14.710;2022-10-31T13:05:05;97856.80;;;16.00
68027;BMP180;54819;48.030;14.710;2022-10-31T13:11:16;97845.00;;;15.90
68027;BMP180;54819;48.030;14.710;2022-10-31T13:16:29;97841.00;;;16.00
68027;BMP180;54819;48.030;14.710;2022-10-31T13:19:20;97839.60;;;16.00
68027;BMP180;54819;48.030;14.710;2022-10-31T13:22:11;97837.20;;;16.10
68027;BMP180;54819;48.030;14.710;2022-10-31T13:24:50;97831.80;;;16.10
68027;BMP180;54819;48.030;14.710;2022-10-31T13:27:25;97834.60;;;16.18
68027;BMP180;54819;48.030;14.710;2022-10-31T13:30:03;97828.80;;;16.18
68027;BMP180;54819;48.030;14.710;2022-10-31T13:32:44;97825.80;;;16.12
68027;BMP180;54819;48.030;14.710;2022-10-31T13:41:52;97820.80;;;16.20
68027;BMP180;54819;48.030;14.710;2022-10-31T13:44:26;97817.00;;;16.20
68027;BMP180;54819;48.030;14.710;2022-10-31T13:46:57;97818.60;;;16.10
68027;BMP180;54819;48.030;14.710;2022-10-31T13:54:39;97815.40;;;16.00
68027;BMP180;54819;48.030;14.710;2022-10-31T13:59:50;97814.00;;;15.90
68027;BMP180;54819;48.030;14.710;2022-10-31T14:02:28;97809.60;;;15.80
68027;BMP180;54819;48.030;14.710;2022-10-31T14:05:04;97807.40;;;15.70
68027;BMP180;54819;48.030;14.710;2022-10-31T14:07:43;97808.20;;;15.70
68027;BMP180;54819;48.030;14.710;2022-10-31T14:10:26;97813.20;;;15.70
68027;BMP180;54819;48.030;14.710;2022-10-31T14:17:24;97807.20;;;15.50
68027;BMP180;54819;48.030;14.710;2022-10-31T14:20:03;97804.20;;;15.40
68027;BMP180;54819;48.030;14.710;2022-10-31T14:22:32;97801.20;;;15.40
68027;BMP180;54819;48.030;14.710;2022-10-31T14:28:20;97800.40;;;15.40
68027;BMP180;54819;48.030;14.710;2022-10-31T14:30:57;97799.80;;;15.30
68027;BMP180;54819;48.030;14.710;2022-10-31T14:33:28;97797.20;;;15.30
68027;BMP180;54819;48.030;14.710;2022-10-31T14:36:24;97798.20;;;15.30
68027;BMP180;54819;48.030;14.710;2022-10-31T14:39:18;97800.80;;;15.30
68027;BMP180;54819;48.030;14.710;2022-10-31T14:50:45;97797.20;;;15.00
68027;BMP180;54819;48.030;14.710;2022-10-31T14:55:50;97787.60;;;14.90
68027;BMP180;54819;48.030;14.710;2022-10-31T14:58:54;97786.40;;;14.90
68027;BMP180;54819;48.030;14.710;2022-10-31T15:01:35;97782.80;;;14.90
68027;BMP180;54819;48.030;14.710;2022-10-31T15:04:27;97784.00;;;14.88
68027;BMP180;54819;48.030;14.710;2022-10-31T15:07:13;97787.20;;;14.80
68027;BMP180;54819;48.030;14.710;2022-10-31T15:10:02;97780.00;;;14.80
68027;BMP180;54819;48.030;14.710;2022-10-31T15:12:33;97780.00;;;14.72
68027;BMP180;54819;48.030;14.710;2022-10-31T15:15:25;97775.00;;;14.70
68027;BMP180;54819;48.030;14.710;2022-10-31T15:17:58;97773.60;;;14.62
68027;BMP180;54819;48.030;14.710;2022-10-31T15:20:32;97770.60;;;14.60
68027;BMP180;54819;48.030;14.710;2022-10-31T15:23:01;97771.80;;;14.60
68027;BMP180;54819;48.030;14.710;2022-10-31T15:25:34;97771.20;;;14.50
68027;BMP180;54819;48.030;14.710;2022-10-31T15:28:14;97769.60;;;14.50
68027;BMP180;54819;48.030;14.710;2022-10-31T15:30:51;97767.60;;;14.40
68027;BMP180;54819;48.030;14.710;2022-10-31T15:33:28;97770.20;;;14.38
68027;BMP180;54819;48.030;14.710;2022-10-31T15:36:03;97766.80;;;14.30
68027;BMP180;54819;48.030;14.710;2022-10-31T15:38:30;97767.00;;;14.30
68027;BMP180;54819;48.030;14.710;2022-10-31T15:41:05;97770.60;;;14.20
68027;BMP180;54819;48.030;14.710;2022-10-31T15:43:37;97770.80;;;14.10
68027;BMP180;54819;48.030;14.710;2022-10-31T15:46:08;97765.80;;;14.00
68027;BMP180;54819;48.030;14.710;2022-10-31T15:48:37;97764.60;;;13.92
68027;BMP180;54819;48.030;14.710;2022-10-31T15:51:05;97768.40;;;13.84
68027;BMP180;54819;48.030;14.710;2022-10-31T15:53:41;97766.40;;;13.80
68027;BMP180;54819;48.030;14.710;2022-10-31T15:56:19;97768.40;;;13.70
68027;BMP180;54819;48.030;14.710;2022-10-31T15:58:51;97766.20;;;13.60
68027;BMP180;54819;48.030;14.710;2022-10-31T16:01:27;97769.00;;;13.60
68027;BMP180;54819;48.030;14.710;2022-10-31T16:06:39;97769.60;;;13.50
68027;BMP180;54819;48.030;14.710;2022-10-31T16:09:24;97759.20;;;13.40
68027;BMP180;54819;48.030;14.710;2022-10-31T16:11:51;97768.20;;;13.40
68027;BMP180;54819;48.030;14.710;2022-10-31T16:14:24;97762.40;;;13.30
68027;BMP180;54819;48.030;14.710;2022-10-31T16:16:55;97765.00;;;13.50
68027;BMP180;54819;48.030;14.710;2022-10-31T16:19:31;97770.80;;;13.50
68027;BMP180;54819;48.030;14.710;2022-10-31T16:22:11;97767.00;;;13.50
68027;BMP180;54819;48.030;14.710;2022-10-31T16:25:02;97771.80;;;13.56
68027;BMP180;54819;48.030;14.710;2022-10-31T16:27:34;97773.60;;;13.70
68027;BMP180;54819;48.030;14.710;2022-10-31T16:30:38;97773.40;;;13.80
68027;BMP180;54819;48.030;14.710;2022-10-31T16:33:34;97774.00;;;13.80
68027;BMP180;54819;48.030;14.710;2022-10-31T16:39:03;97772.20;;;13.48
68027;BMP180;54819;48.030;14.710;2022-10-31T16:41:40;97771.40;;;13.30
68027;BMP180;54819;48.030;14.710;2022-10-31T16:44:24;97773.60;;;13.20
68027;BMP180;54819;48.030;14.710;2022-10-31T16:47:16;97775.00;;;13.10
68027;BMP180;54819;48.030;14.710;2022-10-31T16:49:47;97774.80;;;13.00
68027;BMP180;54819;48.030;14.710;2022-10-31T16:52:16;97778.80;;;12.90
68027;BMP180;54819;48.030;14.710;2022-10-31T16:54:43;97776.40;;;13.00
68027;BMP180;54819;48.030;14.710;2022-10-31T16:57:17;97779.00;;;12.90
68027;BMP180;54819;48.030;14.710;2022-10-31T16:59:50;97783.20;;;12.90